Time;durP1;ratioP1;P1;durP2;ratioP2;P2;SDS_P1;SDS_P2;PMS_P1;PMS_P2;Temp;Humidity;BMP_temperature;BMP_pressure;BME280_temperature;BME280_humidity;BME280_pressure;Samples;Min_cycle;Max_cycle;Signal;HPM_P1;HPM_P2
2021/04/27 00:02:16;;;;;;;1.02;0.88;;;;;11.30;101317.00;;;;5089719;28;20194;-77
2021/04/27 00:04:45;;;;;;;1.63;1.02;;;;;11.30;101319.00;;;;5082723;28;20206;-77
2021/04/27 00:07:12;;;;;;;1.92;0.90;;;;;11.30;101319.00;;;;5090616;28;20245;-77
2021/04/27 00:09:41;;;;;;;1.55;1.02;;;;;11.30;101316.00;;;;5090647;28;20202;-77
2021/04/27 00:12:08;;;;;;;1.80;1.05;;;;;11.20;101312.00;;;;5090780;28;20195;-77
2021/04/27 00:14:35;;;;;;;1.35;0.85;;;;;11.20;101306.00;;;;5090022;28;20588;-77
2021/04/27 00:17:02;;;;;;;1.58;1.10;;;;;11.20;101303.00;;;;5089972;28;20214;-77
2021/04/27 00:19:29;;;;;;;2.38;1.10;;;;;11.10;101293.00;;;;5090067;28;20551;-77
2021/04/27 00:21:57;;;;;;;3.67;1.40;;;;;11.10;101297.00;;;;5089802;28;20198;-78
2021/04/27 00:24:24;;;;;;;2.90;1.30;;;;;11.10;101290.00;;;;5090560;28;20195;-78
2021/04/27 00:26:51;;;;;;;2.42;1.30;;;;;11.10;101283.00;;;;5090481;28;20201;-78
2021/04/27 00:29:17;;;;;;;2.33;1.27;;;;;11.10;101281.00;;;;5088851;28;20607;-77
2021/04/27 00:31:44;;;;;;;1.73;1.23;;;;;11.00;101281.00;;;;5089994;28;20213;-78
2021/04/27 00:34:11;;;;;;;1.45;1.00;;;;;11.00;101283.00;;;;5089594;28;20190;-78
2021/04/27 00:36:38;;;;;;;2.33;0.85;;;;;11.00;101283.00;;;;5086785;28;20226;-77
2021/04/27 00:39:06;;;;;;;1.65;1.33;;;;;11.00;101274.00;;;;5090210;28;20683;-77
2021/04/27 00:41:33;;;;;;;2.58;1.55;;;;;11.00;101274.00;;;;5090262;28;20197;-78
2021/04/27 00:43:59;;;;;;;3.45;1.25;;;;;10.90;101277.00;;;;5089137;28;20206;-77
2021/04/27 00:46:26;;;;;;;1.63;1.35;;;;;10.90;101267.00;;;;5089565;28;20224;-77
2021/04/27 00:48:53;;;;;;;2.78;1.27;;;;;10.90;101268.00;;;;5090275;28;20692;-77
2021/04/27 00:51:20;;;;;;;2.10;1.13;;;;;10.80;101265.00;;;;5077928;28;20231;-77
2021/04/27 00:53:47;;;;;;;3.63;1.38;;;;;10.80;101261.00;;;;5088176;28;20203;-77
2021/04/27 00:56:15;;;;;;;1.58;1.00;;;;;10.80;101257.00;;;;5088754;28;20218;-77
2021/04/27 00:58:42;;;;;;;1.15;0.90;;;;;10.80;101257.00;;;;5088837;28;20568;-77
2021/04/27 01:01:11;;;;;;;3.00;1.13;;;;;10.80;101260.00;;;;5089180;28;20687;-77
2021/04/27 01:03:38;;;;;;;1.40;1.15;;;;;10.70;101242.00;;;;5076913;28;20195;-77
2021/04/27 01:06:06;;;;;;;8.13;1.67;;;;;10.70;101240.00;;;;5080141;28;20727;-77
2021/04/27 01:08:43;;;;;;;2.28;1.02;;;;;10.70;101235.00;;;;5087583;28;20198;-77
2021/04/27 01:11:22;;;;;;;1.85;1.08;;;;;10.60;101230.00;;;;5087860;28;20190;-77
2021/04/27 01:13:58;;;;;;;1.95;1.35;;;;;10.60;101226.00;;;;5088425;28;20186;-77
2021/04/27 01:16:26;;;;;;;2.00;1.50;;;;;10.60;101223.00;;;;5088606;28;20267;-77
2021/04/27 01:18:56;;;;;;;1.55;1.15;;;;;10.60;101223.00;;;;5087978;28;20194;-77
2021/04/27 01:21:26;;;;;;;3.55;1.70;;;;;10.50;101212.00;;;;5085762;28;20202;-77
2021/04/27 01:24:15;;;;;;;4.00;1.58;;;;;10.40;101217.00;;;;5087965;28;20672;-77
2021/04/27 01:26:46;;;;;;;1.60;1.15;;;;;10.50;101212.00;;;;5089372;28;20546;-77
2021/04/27 01:29:16;;;;;;;1.40;0.98;;;;;10.50;101202.00;;;;5087312;28;20629;-77
2021/04/27 01:31:43;;;;;;;2.78;1.10;;;;;10.50;101199.00;;;;5081981;28;20267;-77
2021/04/27 01:34:12;;;;;;;2.72;1.23;;;;;10.40;101197.00;;;;5079230;28;20194;-77
2021/04/27 01:36:39;;;;;;;1.83;1.23;;;;;10.40;101200.00;;;;5088104;28;20597;-77
2021/04/27 01:39:08;;;;;;;2.25;1.25;;;;;10.40;101205.00;;;;5087026;28;20198;-77
2021/04/27 01:41:35;;;;;;;1.83;1.25;;;;;10.40;101205.00;;;;5082791;28;20677;-77
2021/04/27 01:44:04;;;;;;;3.25;1.13;;;;;10.40;101215.00;;;;5085839;28;20229;-77
2021/04/27 01:46:31;;;;;;;1.67;1.10;;;;;10.30;101203.00;;;;5086984;28;20594;-77
2021/04/27 01:48:59;;;;;;;2.30;1.05;;;;;10.30;101199.00;;;;5079646;28;20251;-77
2021/04/27 01:51:27;;;;;;;1.85;1.10;;;;;10.30;101198.00;;;;5087020;28;20707;-77
2021/04/27 01:53:55;;;;;;;1.27;1.08;;;;;10.30;101194.00;;;;5085221;28;20626;-77
2021/04/27 01:56:22;;;;;;;1.80;1.17;;;;;10.30;101193.00;;;;5085742;28;20218;-77
2021/04/27 01:58:49;;;;;;;1.48;1.08;;;;;10.30;101197.00;;;;5084003;28;20244;-76
2021/04/27 02:01:17;;;;;;;3.45;1.10;;;;;10.20;101197.00;;;;5086627;28;20244;-77
2021/04/27 02:03:46;;;;;;;3.50;1.20;;;;;10.20;101197.00;;;;5088878;28;20244;-76
2021/04/27 02:06:13;;;;;;;2.78;1.08;;;;;10.20;101200.00;;;;5087934;28;20227;-77
2021/04/27 02:08:41;;;;;;;2.50;1.05;;;;;10.20;101196.00;;;;5088506;28;20206;-77
2021/04/27 02:11:09;;;;;;;3.03;1.05;;;;;10.20;101193.00;;;;5085175;28;20202;-77
2021/04/27 02:13:36;;;;;;;1.63;1.00;;;;;10.20;101194.00;;;;5088095;28;20198;-77
2021/04/27 02:16:04;;;;;;;2.10;1.13;;;;;10.20;101191.00;;;;5087120;28;20244;-77
2021/04/27 02:18:36;;;;;;;1.95;1.13;;;;;10.10;101187.00;;;;5084309;28;20191;-77
2021/04/27 02:21:03;;;;;;;4.78;1.60;;;;;10.10;101198.00;;;;5086561;28;20564;-77
2021/04/27 02:23:31;;;;;;;2.15;1.30;;;;;10.10;101198.00;;;;5082453;28;20198;-77
2021/04/27 02:25:59;;;;;;;2.45;1.20;;;;;10.10;101202.00;;;;5084924;28;20198;-77
2021/04/27 02:28:26;;;;;;;2.38;1.05;;;;;10.10;101195.00;;;;5082020;28;20198;-77
2021/04/27 02:30:54;;;;;;;3.78;1.10;;;;;10.10;101182.00;;;;5087113;28;20205;-77
2021/04/27 02:33:22;;;;;;;1.83;1.15;;;;;10.10;101186.00;;;;5078907;28;20199;-77
2021/04/27 02:35:52;;;;;;;1.90;1.38;;;;;10.00;101182.00;;;;5086188;28;20233;-77
2021/04/27 02:38:20;;;;;;;1.23;0.90;;;;;10.00;101175.00;;;;5078794;28;20202;-77
2021/04/27 02:40:51;;;;;;;1.33;1.10;;;;;10.00;101174.00;;;;5087550;28;20205;-76
2021/04/27 02:43:17;;;;;;;1.67;1.33;;;;;10.00;101182.00;;;;5086576;28;20243;-77
2021/04/27 02:45:44;;;;;;;1.80;1.10;;;;;10.00;101180.00;;;;5086400;28;20201;-77
2021/04/27 02:48:14;;;;;;;1.50;1.20;;;;;9.90;101165.00;;;;5072200;28;20199;-77
2021/04/27 02:50:43;;;;;;;1.83;1.27;;;;;9.90;101158.00;;;;5079485;28;20190;-77
2021/04/27 02:53:11;;;;;;;6.15;1.52;;;;;9.90;101164.00;;;;5077344;28;20284;-77
2021/04/27 02:55:38;;;;;;;1.58;1.02;;;;;9.90;101161.00;;;;5086499;28;20260;-77
2021/04/27 02:58:05;;;;;;;1.85;1.30;;;;;9.90;101161.00;;;;5081599;28;20198;-77
2021/04/27 03:00:32;;;;;;;4.13;1.77;;;;;9.90;101155.00;;;;5086178;28;20197;-77
2021/04/27 03:02:58;;;;;;;1.30;1.08;;;;;9.80;101151.00;;;;5083151;28;20193;-77
2021/04/27 03:05:25;;;;;;;3.03;1.35;;;;;9.80;101154.00;;;;5071518;28;20214;-77
2021/04/27 03:07:52;;;;;;;1.08;0.98;;;;;9.80;101143.00;;;;5082134;28;20191;-77
2021/04/27 03:10:20;;;;;;;2.65;1.35;;;;;9.80;101151.00;;;;5075092;28;20328;-77
2021/04/27 03:12:47;;;;;;;1.88;1.25;;;;;9.80;101141.00;;;;5083144;28;20198;-77
2021/04/27 03:15:15;;;;;;;1.45;1.05;;;;;9.70;101141.00;;;;5086369;28;20190;-77
2021/04/27 03:17:42;;;;;;;3.40;1.63;;;;;9.70;101145.00;;;;5086573;28;20186;-77
2021/04/27 03:20:11;;;;;;;3.13;1.45;;;;;9.70;101138.00;;;;5088475;28;20194;-77
2021/04/27 03:22:38;;;;;;;2.13;1.08;;;;;9.70;101136.00;;;;5088449;28;20577;-77
2021/04/27 03:25:06;;;;;;;2.00;1.50;;;;;9.70;101128.00;;;;5085036;28;20202;-77
2021/04/27 03:27:34;;;;;;;2.00;1.20;;;;;9.70;101129.00;;;;5084180;28;20653;-76
2021/04/27 03:30:03;;;;;;;1.70;1.40;;;;;9.70;101133.00;;;;5086489;28;20801;-77
2021/04/27 03:32:30;;;;;;;3.38;1.45;;;;;9.60;101129.00;;;;5084349;28;20260;-77
2021/04/27 03:34:56;;;;;;;2.80;1.83;;;;;9.60;101134.00;;;;5072468;28;20195;-77
2021/04/27 03:37:23;;;;;;;2.83;1.40;;;;;9.60;101126.00;;;;5089005;28;20287;-77
2021/04/27 03:39:50;;;;;;;3.28;1.45;;;;;9.60;101132.00;;;;5091139;28;20202;-77
2021/04/27 03:42:17;;;;;;;2.70;1.15;;;;;9.60;101122.00;;;;5090090;28;20193;-77
2021/04/27 03:44:45;;;;;;;1.92;1.30;;;;;9.60;101124.00;;;;5092118;28;20213;-77
2021/04/27 03:47:11;;;;;;;4.18;1.27;;;;;9.60;101127.00;;;;5089752;28;20229;-77
2021/04/27 03:49:39;;;;;;;3.17;1.23;;;;;9.50;101123.00;;;;5084563;28;20191;-77
2021/04/27 03:52:06;;;;;;;4.10;1.55;;;;;9.50;101127.00;;;;5088495;28;20233;-77
2021/04/27 03:54:33;;;;;;;3.95;1.67;;;;;9.50;101125.00;;;;5078105;28;20203;-77
2021/04/27 03:56:59;;;;;;;1.70;1.13;;;;;9.50;101122.00;;;;5083502;28;20233;-77
2021/04/27 03:59:26;;;;;;;1.75;1.30;;;;;9.50;101121.00;;;;5090390;28;20194;-77
2021/04/27 04:01:54;;;;;;;2.22;1.48;;;;;9.40;101123.00;;;;5089673;28;20194;-76
2021/04/27 04:04:21;;;;;;;2.15;1.08;;;;;9.40;101121.00;;;;5091601;28;20198;-77
2021/04/27 04:06:47;;;;;;;3.22;1.30;;;;;9.40;101119.00;;;;5089578;28;20271;-77
2021/04/27 04:09:14;;;;;;;3.22;1.73;;;;;9.40;101120.00;;;;5089105;28;20286;-77
2021/04/27 04:11:41;;;;;;;2.03;1.60;;;;;9.40;101120.00;;;;5089062;28;20198;-77
2021/04/27 04:14:08;;;;;;;2.58;1.40;;;;;9.40;101119.00;;;;5089038;28;20198;-77
2021/04/27 04:16:35;;;;;;;2.30;1.77;;;;;9.40;101121.00;;;;5088920;28;20229;-77
2021/04/27 04:19:03;;;;;;;2.63;1.85;;;;;9.30;101114.00;;;;5089712;28;20202;-77
2021/04/27 04:21:29;;;;;;;3.95;1.60;;;;;9.30;101107.00;;;;5088408;28;20199;-77
2021/04/27 04:23:56;;;;;;;2.72;1.40;;;;;9.30;101110.00;;;;5090117;28;20190;-77
2021/04/27 04:26:24;;;;;;;1.98;1.42;;;;;9.30;101107.00;;;;5089265;28;20602;-77
2021/04/27 04:28:51;;;;;;;2.95;1.50;;;;;9.30;101103.00;;;;5083765;28;20201;-77
2021/04/27 04:31:17;;;;;;;2.92;1.52;;;;;9.30;101100.00;;;;5089749;28;20201;-77
2021/04/27 04:33:44;;;;;;;2.08;1.55;;;;;9.30;101101.00;;;;5080590;28;20209;-76
2021/04/27 04:36:12;;;;;;;2.50;1.50;;;;;9.30;101104.00;;;;5088821;28;20214;-77
2021/04/27 04:38:39;;;;;;;1.90;1.38;;;;;9.30;101101.00;;;;5084908;28;20198;-77
2021/04/27 04:41:08;;;;;;;1.88;1.50;;;;;9.30;101103.00;;;;5089919;28;20199;-78
2021/04/27 04:43:35;;;;;;;2.08;1.35;;;;;9.30;101092.00;;;;5087918;28;20206;-77
2021/04/27 04:46:02;;;;;;;7.13;2.28;;;;;9.30;101096.00;;;;5090238;28;20197;-77
2021/04/27 04:48:28;;;;;;;1.95;1.45;;;;;9.30;101099.00;;;;5089450;28;21269;-77
2021/04/27 04:50:55;;;;;;;2.03;1.55;;;;;9.40;101105.00;;;;5078309;28;20191;-76
2021/04/27 04:53:23;;;;;;;1.95;1.45;;;;;9.40;101095.00;;;;5082182;28;20203;-76
2021/04/27 04:55:50;;;;;;;1.95;1.38;;;;;9.40;101095.00;;;;5089717;28;20253;-77
2021/04/27 04:58:17;;;;;;;2.88;1.60;;;;;9.40;101096.00;;;;5089245;28;20194;-76
2021/04/27 05:00:43;;;;;;;2.30;1.90;;;;;9.40;101096.00;;;;5083397;28;20660;-76
2021/04/27 05:03:10;;;;;;;3.03;1.80;;;;;9.50;101096.00;;;;5069877;28;20191;-77
2021/04/27 05:05:37;;;;;;;3.08;2.10;;;;;9.50;101092.00;;;;5086345;28;20213;-77
2021/04/27 05:08:10;;;;;;;3.15;1.58;;;;;9.50;101092.00;;;;5089800;28;20190;-76
2021/04/27 05:10:38;;;;;;;2.92;1.63;;;;;9.50;101102.00;;;;5088703;28;20598;-76
2021/04/27 05:13:05;;;;;;;2.83;1.60;;;;;9.60;101091.00;;;;5089961;28;20623;-76
2021/04/27 05:15:32;;;;;;;2.58;2.05;;;;;9.60;101096.00;;;;5089704;28;20194;-76
2021/04/27 05:17:59;;;;;;;2.47;1.92;;;;;9.70;101093.00;;;;5088406;28;20198;-77
2021/04/27 05:20:26;;;;;;;3.10;1.58;;;;;9.70;101106.00;;;;5084107;28;20191;-77
2021/04/27 05:22:53;;;;;;;4.45;1.70;;;;;9.80;101102.00;;;;5085265;28;20202;-78
2021/04/27 05:25:20;;;;;;;3.70;1.95;;;;;9.80;101100.00;;;;5089166;28;20652;-78
2021/04/27 05:27:48;;;;;;;4.07;1.83;;;;;9.80;101091.00;;;;5080989;28;20198;-79
2021/04/27 05:30:16;;;;;;;4.35;1.90;;;;;9.90;101095.00;;;;5087587;28;20205;-78
2021/04/27 05:32:42;;;;;;;2.78;2.28;;;;;9.90;101101.00;;;;5080431;28;20203;-78
2021/04/27 05:35:10;;;;;;;2.60;1.73;;;;;10.00;101107.00;;;;5089850;28;20578;-78
2021/04/27 05:37:37;;;;;;;3.63;1.95;;;;;10.10;101091.00;;;;5087277;28;20486;-78
2021/04/27 05:40:05;;;;;;;2.47;1.88;;;;;10.20;101092.00;;;;5081703;28;20667;-78
2021/04/27 05:42:32;;;;;;;4.30;1.88;;;;;10.20;101090.00;;;;5078709;28;20239;-78
2021/04/27 05:45:00;;;;;;;3.47;1.80;;;;;10.30;101094.00;;;;5087787;28;20198;-78
2021/04/27 05:47:27;;;;;;;4.55;1.90;;;;;10.40;101093.00;;;;5088142;28;20241;-78
2021/04/27 05:49:53;;;;;;;2.15;1.67;;;;;10.50;101099.00;;;;5089146;28;20224;-78
2021/04/27 05:52:20;;;;;;;2.63;2.33;;;;;10.50;101096.00;;;;5087277;28;20229;-78
2021/04/27 05:54:47;;;;;;;3.03;1.85;;;;;10.70;101092.00;;;;5088832;28;20198;-78
2021/04/27 05:57:14;;;;;;;2.17;1.77;;;;;10.80;101092.00;;;;5084462;28;20276;-78
2021/04/27 05:59:40;;;;;;;2.78;1.92;;;;;10.90;101092.00;;;;5084829;28;20202;-78
2021/04/27 06:02:09;;;;;;;2.45;1.75;;;;;11.00;101102.00;;;;5088118;28;20209;-78
2021/04/27 06:04:37;;;;;;;3.05;2.17;;;;;11.10;101105.00;;;;5087689;28;20567;-78
2021/04/27 06:07:04;;;;;;;2.72;2.00;;;;;11.30;101109.00;;;;5088217;28;20775;-78
2021/04/27 06:09:31;;;;;;;2.20;1.60;;;;;11.40;101105.00;;;;5088297;28;20747;-79
2021/04/27 06:11:58;;;;;;;2.20;1.70;;;;;11.50;101119.00;;;;5084660;28;20252;-78
2021/04/27 06:14:25;;;;;;;3.05;2.00;;;;;11.50;101104.00;;;;5083258;28;20561;-78
2021/04/27 06:16:52;;;;;;;3.25;2.13;;;;;11.60;101105.00;;;;5088025;28;20263;-79
2021/04/27 06:19:20;;;;;;;2.80;1.88;;;;;11.70;101110.00;;;;5082008;28;20736;-78
2021/04/27 06:21:47;;;;;;;3.55;2.05;;;;;11.80;101107.00;;;;5077438;28;20246;-78
2021/04/27 06:24:14;;;;;;;3.15;2.17;;;;;12.00;101103.00;;;;5083768;28;20206;-78
2021/04/27 06:26:42;;;;;;;2.08;1.88;;;;;12.10;101104.00;;;;5084703;28;20202;-78
2021/04/27 06:29:08;;;;;;;3.67;2.47;;;;;12.20;101107.00;;;;5079838;28;20228;-78
2021/04/27 06:31:36;;;;;;;2.10;1.73;;;;;12.30;101111.00;;;;5088920;28;20720;-78
2021/04/27 06:34:03;;;;;;;3.70;2.30;;;;;12.40;101108.00;;;;5087009;28;20590;-78
2021/04/27 06:36:31;;;;;;;2.97;2.10;;;;;12.50;101110.00;;;;5085107;28;20578;-78
2021/04/27 06:38:58;;;;;;;2.15;1.75;;;;;12.60;101116.00;;;;5088182;28;20195;-76
2021/04/27 06:41:25;;;;;;;3.30;2.20;;;;;12.80;101111.00;;;;5078878;28;20210;-77
2021/04/27 06:43:52;;;;;;;3.25;1.75;;;;;12.90;101109.00;;;;5077134;28;20198;-77
2021/04/27 06:46:19;;;;;;;2.60;1.98;;;;;13.00;101099.00;;;;5075451;28;20566;-77
2021/04/27 06:48:46;;;;;;;2.58;2.08;;;;;13.10;101099.00;;;;5083746;28;20206;-78
2021/04/27 06:51:17;;;;;;;3.38;2.10;;;;;13.20;101103.00;;;;5082158;28;20233;-76
2021/04/27 06:53:45;;;;;;;2.80;2.03;;;;;13.30;101101.00;;;;5084876;28;20194;-77
2021/04/27 06:56:12;;;;;;;2.67;2.03;;;;;13.40;101110.00;;;;5083229;28;20218;-77
2021/04/27 06:58:39;;;;;;;3.30;2.13;;;;;13.60;101110.00;;;;5081117;28;20194;-77
2021/04/27 07:01:06;;;;;;;2.03;1.73;;;;;13.70;101107.00;;;;5077769;28;20205;-81
2021/04/27 07:03:34;;;;;;;4.55;2.63;;;;;13.80;101106.00;;;;5076384;28;20227;-76
2021/04/27 07:06:01;;;;;;;3.08;1.90;;;;;13.90;101100.00;;;;5088032;28;20576;-84
2021/04/27 07:08:28;;;;;;;3.83;2.40;;;;;14.00;101093.00;;;;5084073;28;20210;-77
2021/04/27 07:10:57;;;;;;;2.28;1.73;;;;;14.10;101102.00;;;;5079372;28;20674;-81
2021/04/27 07:13:24;;;;;;;2.47;2.05;;;;;14.30;101107.00;;;;5090028;28;20190;-80
2021/04/27 07:15:51;;;;;;;2.17;1.98;;;;;14.40;101100.00;;;;5088298;28;20220;-81
2021/04/27 07:18:18;;;;;;;2.97;2.13;;;;;14.50;101102.00;;;;5082037;28;20255;-79
2021/04/27 07:20:45;;;;;;;2.65;2.20;;;;;14.70;101087.00;;;;5087463;28;20206;-79
2021/04/27 07:23:12;;;;;;;5.00;2.85;;;;;14.80;101088.00;;;;5087853;28;20195;-79
2021/04/27 07:25:39;;;;;;;3.05;2.28;;;;;14.90;101096.00;;;;5088403;28;20232;-81
2021/04/27 07:28:07;;;;;;;2.53;2.10;;;;;15.00;101099.00;;;;5082674;28;20202;-80
2021/04/27 07:30:35;;;;;;;3.08;2.28;;;;;15.20;101091.00;;;;5089436;28;20252;-81
2021/04/27 07:33:02;;;;;;;3.00;2.42;;;;;15.30;101092.00;;;;5091041;28;20205;-81
2021/04/27 07:35:29;;;;;;;2.67;1.92;;;;;15.50;101083.00;;;;5091281;28;20206;-81
2021/04/27 07:38:00;;;;;;;2.85;2.03;;;;;15.60;101089.00;;;;5091598;28;20252;-82
2021/04/27 07:40:27;;;;;;;2.47;1.88;;;;;15.70;101090.00;;;;5091897;28;20205;-81
2021/04/27 07:42:54;;;;;;;3.17;2.55;;;;;15.80;101081.00;;;;5091141;28;20251;-81
2021/04/27 07:45:22;;;;;;;3.22;2.08;;;;;15.90;101076.00;;;;5091867;28;20198;-82
2021/04/27 07:47:51;;;;;;;2.85;2.05;;;;;16.10;101084.00;;;;5089774;28;20211;-82
2021/04/27 07:50:19;;;;;;;2.30;2.00;;;;;16.20;101079.00;;;;5074496;28;20209;-81
2021/04/27 07:52:46;;;;;;;2.35;2.05;;;;;16.30;101081.00;;;;5075077;28;20258;-79
2021/04/27 07:55:12;;;;;;;2.60;1.92;;;;;16.40;101091.00;;;;5089284;28;20445;-79
2021/04/27 07:57:39;;;;;;;3.25;2.15;;;;;16.60;101085.00;;;;5089910;28;20218;-79
2021/04/27 08:00:08;;;;;;;6.95;1.92;;;;;16.70;101082.00;;;;5082989;28;20206;-79
2021/04/27 08:02:36;;;;;;;2.08;1.75;;;;;16.80;101088.00;;;;5085682;28;20225;-79
2021/04/27 08:05:04;;;;;;;2.70;2.00;;;;;17.00;101085.00;;;;5087276;28;20510;-80
2021/04/27 08:07:31;;;;;;;4.20;2.20;;;;;17.10;101088.00;;;;5090093;28;20222;-80
2021/04/27 08:09:57;;;;;;;5.45;2.38;;;;;17.20;101079.00;;;;5090965;28;20197;-80
2021/04/27 08:12:24;;;;;;;2.58;2.10;;;;;17.30;101075.00;;;;5090420;28;20625;-80
2021/04/27 08:14:51;;;;;;;2.78;2.08;;;;;17.40;101080.00;;;;5091701;28;20213;-77
2021/04/27 08:17:18;;;;;;;3.50;2.10;;;;;17.50;101077.00;;;;5090061;28;20221;-78
2021/04/27 08:19:47;;;;;;;2.30;2.03;;;;;17.70;101070.00;;;;5089764;28;20205;-78
2021/04/27 08:22:13;;;;;;;3.42;2.25;;;;;17.80;101056.00;;;;5090403;28;20210;-76
2021/04/27 08:24:44;;;;;;;3.33;2.35;;;;;17.80;101067.00;;;;5091617;28;20202;-76
2021/04/27 08:27:11;;;;;;;2.33;1.98;;;;;17.90;101060.00;;;;5086748;28;20207;-76
2021/04/27 08:29:39;;;;;;;3.55;2.22;;;;;18.00;101061.00;;;;5082498;28;20206;-76
2021/04/27 08:32:06;;;;;;;1.98;1.67;;;;;18.10;101060.00;;;;5088514;28;20577;-76
2021/04/27 08:34:33;;;;;;;2.55;1.92;;;;;18.10;101054.00;;;;5086189;28;20544;-77
2021/04/27 08:37:01;;;;;;;2.80;2.13;;;;;18.20;101057.00;;;;5069760;28;20595;-77
2021/04/27 08:39:28;;;;;;;2.50;2.30;;;;;18.30;101049.00;;;;5088379;28;20201;-76
2021/04/27 08:41:55;;;;;;;4.60;2.17;;;;;18.40;101050.00;;;;5088800;28;20211;-76
2021/04/27 08:44:22;;;;;;;1.98;1.77;;;;;18.40;101044.00;;;;5089664;28;20210;-76
2021/04/27 08:46:49;;;;;;;5.03;2.13;;;;;18.50;101043.00;;;;5069535;28;20256;-76
2021/04/27 08:49:16;;;;;;;2.50;1.90;;;;;18.50;101050.00;;;;5070161;28;20668;-78
2021/04/27 08:51:43;;;;;;;2.40;2.08;;;;;18.60;101052.00;;;;5087877;28;20645;-76
2021/04/27 08:54:11;;;;;;;3.50;1.95;;;;;18.70;101047.00;;;;5088605;28;20278;-77
2021/04/27 08:56:38;;;;;;;3.50;1.90;;;;;18.70;101043.00;;;;5089735;28;20279;-76
2021/04/27 08:59:05;;;;;;;2.55;2.17;;;;;18.80;101049.00;;;;5089999;28;20266;-77
2021/04/27 09:01:32;;;;;;;1.95;1.67;;;;;18.80;101044.00;;;;5088038;28;20202;-79
2021/04/27 09:04:00;;;;;;;2.97;1.80;;;;;18.90;101042.00;;;;5089398;28;20198;-79
2021/04/27 09:06:27;;;;;;;3.45;2.00;;;;;18.90;101040.00;;;;5087089;28;20232;-79
2021/04/27 09:08:53;;;;;;;2.83;1.80;;;;;19.00;101041.00;;;;5085339;28;20251;-79
2021/04/27 09:11:30;;;;;;;2.35;1.85;;;;;19.00;101035.00;;;;5089986;28;20248;-79
2021/04/27 09:14:11;;;;;;;4.35;2.13;;;;;19.10;101034.00;;;;5074888;28;20202;-79
2021/04/27 09:16:39;;;;;;;3.25;1.63;;;;;19.20;101034.00;;;;5067981;28;20232;-79
2021/04/27 09:19:06;;;;;;;2.45;2.03;;;;;19.30;101024.00;;;;5067696;28;20210;-78
2021/04/27 09:21:35;;;;;;;2.70;2.10;;;;;19.30;101017.00;;;;5067964;28;20585;-79
2021/04/27 09:24:13;;;;;;;2.80;2.05;;;;;19.30;101025.00;;;;5068027;28;20206;-79
2021/04/27 09:26:42;;;;;;;2.63;2.03;;;;;19.40;101017.00;;;;5087116;28;20263;-76
2021/04/27 09:29:09;;;;;;;2.58;2.13;;;;;19.50;101023.00;;;;5087211;28;20249;-79
2021/04/27 09:31:37;;;;;;;3.67;1.85;;;;;19.60;101019.00;;;;5090009;28;20567;-79
2021/04/27 09:34:22;;;;;;;3.97;2.03;;;;;19.60;101024.00;;;;5090006;28;20206;-79
2021/04/27 09:36:49;;;;;;;2.90;2.17;;;;;19.70;101021.00;;;;5089953;28;20271;-79
2021/04/27 09:39:20;;;;;;;3.30;2.38;;;;;19.80;101023.00;;;;5090194;28;20194;-79
2021/04/27 09:41:59;;;;;;;2.22;2.03;;;;;19.80;101015.00;;;;5089575;28;20210;-79
2021/04/27 09:44:27;;;;;;;3.22;2.05;;;;;20.00;101014.00;;;;5081018;28;20206;-79
2021/04/27 09:47:13;;;;;;;2.28;1.98;;;;;20.00;101016.00;;;;5083570;28;20198;-79
2021/04/27 09:49:57;;;;;;;2.38;1.65;;;;;20.20;101012.00;;;;5125601;27;21072;-77
2021/04/27 09:52:24;;;;;;;2.63;1.88;;;;;20.30;101013.00;;;;5125092;28;20196;-77
2021/04/27 09:55:09;;;;;;;2.40;1.88;;;;;20.30;101008.00;;;;5125566;28;20197;-76
2021/04/27 09:57:38;;;;;;;2.35;1.73;;;;;20.50;101007.00;;;;5124791;28;20668;-76
2021/04/27 10:00:22;;;;;;;2.03;1.83;;;;;20.50;101009.00;;;;5108738;28;20193;-76
2021/04/27 10:02:49;;;;;;;6.05;2.58;;;;;20.60;101008.00;;;;5104530;28;20652;-76
2021/04/27 10:05:17;;;;;;;2.47;1.88;;;;;20.70;101002.00;;;;5104926;28;20189;-76
2021/04/27 10:07:44;;;;;;;3.65;2.33;;;;;20.80;101001.00;;;;5106101;28;20213;-76
2021/04/27 10:10:13;;;;;;;5.53;2.17;;;;;20.90;100993.00;;;;5105622;28;20198;-76
2021/04/27 10:12:41;;;;;;;2.35;2.10;;;;;21.00;100986.00;;;;5105922;28;20202;-76
2021/04/27 10:15:09;;;;;;;3.13;2.28;;;;;21.00;100988.00;;;;5104546;28;20671;-75
2021/04/27 10:17:36;;;;;;;3.10;2.50;;;;;21.10;100985.00;;;;5117705;28;20204;-76
2021/04/27 10:20:06;;;;;;;3.35;2.22;;;;;21.10;100991.00;;;;5125788;28;20201;-76
2021/04/27 10:22:35;;;;;;;2.38;2.05;;;;;21.20;100984.00;;;;5126093;28;20201;-76
2021/04/27 10:25:03;;;;;;;3.17;1.77;;;;;21.30;100985.00;;;;5126298;28;20201;-76
2021/04/27 10:27:30;;;;;;;2.72;1.92;;;;;21.30;100985.00;;;;5125796;27;20201;-76
2021/04/27 10:30:22;;;;;;;3.80;1.88;;;;;21.40;100978.00;;;;5126435;28;20212;-76
2021/04/27 10:33:24;;;;;;;2.15;1.75;;;;;21.40;100984.00;;;;5121289;27;20297;-76
2021/04/27 10:36:08;;;;;;;4.00;1.90;;;;;21.40;100980.00;;;;5103871;28;20200;-76
2021/04/27 10:38:44;;;;;;;2.85;2.53;;;;;21.50;100977.00;;;;5106065;28;20197;-77
2021/04/27 10:41:13;;;;;;;6.20;2.50;;;;;21.60;100977.00;;;;5105552;28;20190;-77
2021/04/27 10:43:52;;;;;;;6.72;2.28;;;;;21.70;100979.00;;;;5105707;28;20250;-76
2021/04/27 10:46:57;;;;;;;4.20;2.05;;;;;21.60;100973.00;;;;5113540;28;20204;-77
2021/04/27 10:49:32;;;;;;;3.28;1.80;;;;;21.70;100971.00;;;;5124136;28;20698;-77
2021/04/27 10:52:00;;;;;;;3.63;2.00;;;;;21.70;100969.00;;;;5105155;28;20228;-76
2021/04/27 10:54:31;;;;;;;3.22;1.90;;;;;21.80;100965.00;;;;5105395;28;20231;-76
2021/04/27 10:57:15;;;;;;;3.47;1.88;;;;;21.70;100972.00;;;;5104948;28;20231;-76
2021/04/27 10:59:56;;;;;;;3.03;2.58;;;;;21.80;100958.00;;;;5100291;28;20305;-76
2021/04/27 11:02:26;;;;;;;3.40;2.13;;;;;21.90;100962.00;;;;5091590;28;20582;-77
2021/04/27 11:04:55;;;;;;;4.28;2.28;;;;;21.90;100958.00;;;;5091286;28;20694;-76
2021/04/27 11:07:36;;;;;;;2.97;2.20;;;;;21.90;100960.00;;;;5100159;28;20221;-76
2021/04/27 11:10:22;;;;;;;3.33;2.42;;;;;21.90;100952.00;;;;5111322;28;20198;-76
2021/04/27 11:12:58;;;;;;;3.35;1.70;;;;;21.90;100950.00;;;;5112209;28;20284;-76
2021/04/27 11:15:27;;;;;;;5.65;2.38;;;;;22.00;100948.00;;;;5111910;28;20568;-76
2021/04/27 11:18:02;;;;;;;2.88;2.20;;;;;22.00;100947.00;;;;5111081;28;20659;-76
2021/04/27 11:20:50;;;;;;;2.53;2.08;;;;;21.90;100947.00;;;;5111570;28;20783;-76
2021/04/27 11:23:48;;;;;;;2.22;2.00;;;;;22.00;100950.00;;;;5110757;28;20930;-76
2021/04/27 11:26:41;;;;;;;1.70;1.48;;;;;22.00;100937.00;;;;5091031;28;20194;-76
2021/04/27 11:29:12;;;;;;;2.35;1.90;;;;;22.10;100938.00;;;;5108576;28;20653;-76
2021/04/27 11:32:03;;;;;;;2.42;2.13;;;;;22.10;100932.00;;;;5111827;28;20190;-76
2021/04/27 11:34:31;;;;;;;2.58;2.15;;;;;22.20;100932.00;;;;5111488;28;20541;-76
2021/04/27 11:36:59;;;;;;;6.20;2.35;;;;;22.30;100926.00;;;;5111191;28;20196;-76
2021/04/27 11:39:29;;;;;;;5.15;2.13;;;;;22.30;100929.00;;;;5110487;28;20215;-76
2021/04/27 11:41:59;;;;;;;5.13;2.45;;;;;22.40;100922.00;;;;5097202;28;20199;-76
2021/04/27 11:44:31;;;;;;;2.17;1.83;;;;;22.40;100922.00;;;;5090456;28;20191;-76
2021/04/27 11:47:01;;;;;;;2.17;1.80;;;;;22.50;100921.00;;;;5090764;28;20195;-76
2021/04/27 11:49:53;;;;;;;3.75;2.10;;;;;22.40;100928.00;;;;5101958;28;20282;-76
2021/04/27 11:52:45;;;;;;;2.50;2.30;;;;;22.50;100924.00;;;;5110610;28;20212;-76
2021/04/27 11:55:20;;;;;;;2.00;1.80;;;;;22.50;100926.00;;;;5109788;28;21137;-75
2021/04/27 11:57:50;;;;;;;2.42;2.00;;;;;22.60;100919.00;;;;5107194;28;20268;-76
2021/04/27 12:00:18;;;;;;;2.42;2.00;;;;;22.60;100921.00;;;;5110707;28;20198;-76
2021/04/27 12:02:45;;;;;;;4.15;1.98;;;;;22.70;100917.00;;;;5110343;28;20728;-76
2021/04/27 12:05:12;;;;;;;3.00;2.17;;;;;22.70;100916.00;;;;5110466;28;20209;-76
2021/04/27 12:07:39;;;;;;;3.80;1.92;;;;;22.80;100920.00;;;;5110232;28;20642;-76
2021/04/27 12:10:07;;;;;;;2.63;1.63;;;;;22.80;100912.00;;;;5110584;28;20204;-76
2021/04/27 12:12:35;;;;;;;3.67;2.20;;;;;22.80;100921.00;;;;5109218;28;20197;-76
2021/04/27 12:15:04;;;;;;;2.42;2.20;;;;;22.90;100913.00;;;;5109217;28;20200;-76
2021/04/27 12:17:33;;;;;;;2.75;2.00;;;;;22.90;100911.00;;;;5110389;28;20194;-76
2021/04/27 12:20:09;;;;;;;2.90;2.05;;;;;22.90;100909.00;;;;5109722;28;20227;-76
2021/04/27 12:22:41;;;;;;;3.63;1.80;;;;;23.00;100910.00;;;;5109236;28;20235;-76